sensor_id;sensor_type;location;lat;lon;timestamp;pressure;altitude;pressure_sealevel;temperature;humidity
38900;BME280;24660;43.238;26.576;2022-07-01T00:02:05;99183.69;;;20.98;100.00
38900;BME280;24660;43.238;26.576;2022-07-01T00:04:31;99181.53;;;20.93;100.00
38900;BME280;24660;43.238;26.576;2022-07-01T00:06:56;99177.13;;;21.20;100.00
38900;BME280;24660;43.238;26.576;2022-07-01T00:09:21;99180.69;;;21.21;100.00
38900;BME280;24660;43.238;26.576;2022-07-01T00:11:47;99184.56;;;21.05;100.00
38900;BME280;24660;43.238;26.576;2022-07-01T00:14:12;99182.06;;;21.10;100.00
38900;BME280;24660;43.238;26.576;2022-07-01T00:16:38;99174.72;;;21.32;100.00
38900;BME280;24660;43.238;26.576;2022-07-01T00:19:03;99173.91;;;21.38;100.00
38900;BME280;24660;43.238;26.576;2022-07-01T00:21:29;99168.88;;;21.35;100.00
38900;BME280;24660;43.238;26.576;2022-07-01T00:23:54;99166.53;;;21.67;100.00
38900;BME280;24660;43.238;26.576;2022-07-01T00:26:19;99161.09;;;21.60;100.00
38900;BME280;24660;43.238;26.576;2022-07-01T00:28:45;99168.19;;;21.54;100.00
38900;BME280;24660;43.238;26.576;2022-07-01T00:31:10;99155.72;;;21.39;100.00
38900;BME280;24660;43.238;26.576;2022-07-01T00:33:35;99160.94;;;21.33;100.00
38900;BME280;24660;43.238;26.576;2022-07-01T00:36:01;99167.38;;;21.67;100.00
38900;BME280;24660;43.238;26.576;2022-07-01T00:38:26;99175.44;;;21.41;100.00
38900;BME280;24660;43.238;26.576;2022-07-01T00:40:52;99173.41;;;21.56;100.00
38900;BME280;24660;43.238;26.576;2022-07-01T00:43:18;99174.38;;;21.42;100.00
38900;BME280;24660;43.238;26.576;2022-07-01T00:45:45;99183.41;;;21.49;100.00
38900;BME280;24660;43.238;26.576;2022-07-01T00:48:12;99173.47;;;21.28;100.00
38900;BME280;24660;43.238;26.576;2022-07-01T00:50:38;99166.22;;;21.14;100.00
38900;BME280;24660;43.238;26.576;2022-07-01T00:53:03;99161.84;;;21.13;100.00
38900;BME280;24660;43.238;26.576;2022-07-01T00:55:29;99155.94;;;21.37;100.00
38900;BME280;24660;43.238;26.576;2022-07-01T00:57:55;99167.38;;;21.60;100.00
38900;BME280;24660;43.238;26.576;2022-07-01T01:00:20;99155.22;;;21.56;100.00
38900;BME280;24660;43.238;26.576;2022-07-01T01:02:47;99149.00;;;21.28;100.00
38900;BME280;24660;43.238;26.576;2022-07-01T01:05:13;99154.50;;;21.13;100.00
38900;BME280;24660;43.238;26.576;2022-07-01T01:07:38;99158.09;;;21.48;100.00
38900;BME280;24660;43.238;26.576;2022-07-01T01:10:04;99153.41;;;21.36;100.00
38900;BME280;24660;43.238;26.576;2022-07-01T01:12:29;99148.53;;;20.96;100.00
38900;BME280;24660;43.238;26.576;2022-07-01T01:14:55;99150.47;;;20.74;100.00
38900;BME280;24660;43.238;26.576;2022-07-01T01:17:21;99145.88;;;20.75;100.00
38900;BME280;24660;43.238;26.576;2022-07-01T01:19:47;99149.19;;;20.70;100.00
38900;BME280;24660;43.238;26.576;2022-07-01T01:22:14;99151.25;;;20.96;100.00
38900;BME280;24660;43.238;26.576;2022-07-01T01:24:42;99142.66;;;20.93;100.00
38900;BME280;24660;43.238;26.576;2022-07-01T01:27:08;99151.09;;;20.77;100.00
38900;BME280;24660;43.238;26.576;2022-07-01T01:29:35;99151.91;;;20.70;100.00
38900;BME280;24660;43.238;26.576;2022-07-01T01:32:01;99147.09;;;21.00;100.00
38900;BME280;24660;43.238;26.576;2022-07-01T01:34:26;99161.53;;;21.01;100.00
38900;BME280;24660;43.238;26.576;2022-07-01T01:36:51;99163.44;;;21.28;100.00
38900;BME280;24660;43.238;26.576;2022-07-01T01:39:17;99163.44;;;21.07;100.00
38900;BME280;24660;43.238;26.576;2022-07-01T01:41:43;99161.03;;;20.91;100.00
38900;BME280;24660;43.238;26.576;2022-07-01T01:44:08;99163.53;;;21.20;100.00
38900;BME280;24660;43.238;26.576;2022-07-01T01:46:34;99158.81;;;21.29;100.00
38900;BME280;24660;43.238;26.576;2022-07-01T01:49:00;99161.28;;;20.96;100.00
38900;BME280;24660;43.238;26.576;2022-07-01T01:51:25;99161.94;;;20.98;100.00
38900;BME280;24660;43.238;26.576;2022-07-01T01:53:51;99165.63;;;20.90;100.00
38900;BME280;24660;43.238;26.576;2022-07-01T01:56:16;99166.25;;;20.64;100.00
38900;BME280;24660;43.238;26.576;2022-07-01T01:58:41;99170.75;;;20.79;100.00
38900;BME280;24660;43.238;26.576;2022-07-01T02:01:09;99169.78;;;20.65;100.00
38900;BME280;24660;43.238;26.576;2022-07-01T02:03:35;99174.66;;;20.69;100.00
38900;BME280;24660;43.238;26.576;2022-07-01T02:06:00;99180.34;;;20.53;100.00
38900;BME280;24660;43.238;26.576;2022-07-01T02:08:26;99178.28;;;20.19;100.00
38900;BME280;24660;43.238;26.576;2022-07-01T02:10:51;99182.56;;;20.43;100.00
38900;BME280;24660;43.238;26.576;2022-07-01T02:13:16;99188.19;;;20.27;100.00
38900;BME280;24660;43.238;26.576;2022-07-01T02:15:42;99182.63;;;20.35;100.00
38900;BME280;24660;43.238;26.576;2022-07-01T02:18:07;99175.66;;;20.68;100.00
38900;BME280;24660;43.238;26.576;2022-07-01T02:20:33;99190.13;;;20.33;100.00
38900;BME280;24660;43.238;26.576;2022-07-01T02:22:59;99189.31;;;20.32;100.00
38900;BME280;24660;43.238;26.576;2022-07-01T02:25:24;99194.31;;;20.50;100.00
38900;BME280;24660;43.238;26.576;2022-07-01T02:27:49;99192.44;;;20.51;100.00
38900;BME280;24660;43.238;26.576;2022-07-01T02:30:15;99203.28;;;20.51;100.00
38900;BME280;24660;43.238;26.576;2022-07-01T02:32:40;99195.91;;;20.08;100.00
38900;BME280;24660;43.238;26.576;2022-07-01T02:35:06;99192.81;;;20.48;100.00
38900;BME280;24660;43.238;26.576;2022-07-01T02:37:31;99196.84;;;20.15;100.00
38900;BME280;24660;43.238;26.576;2022-07-01T02:39:58;99193.97;;;20.02;100.00
38900;BME280;24660;43.238;26.576;2022-07-01T02:42:24;99205.63;;;19.67;100.00
38900;BME280;24660;43.238;26.576;2022-07-01T02:44:51;99211.34;;;19.57;100.00
38900;BME280;24660;43.238;26.576;2022-07-01T02:47:16;99209.09;;;19.61;100.00
38900;BME280;24660;43.238;26.576;2022-07-01T02:49:42;99215.97;;;19.48;100.00
38900;BME280;24660;43.238;26.576;2022-07-01T02:52:07;99220.44;;;19.41;100.00
38900;BME280;24660;43.238;26.576;2022-07-01T02:54:32;99224.75;;;19.36;100.00
38900;BME280;24660;43.238;26.576;2022-07-01T02:56:58;99232.69;;;19.37;100.00
38900;BME280;24660;43.238;26.576;2022-07-01T02:59:23;99235.59;;;19.50;100.00
38900;BME280;24660;43.238;26.576;2022-07-01T03:01:49;99233.69;;;19.59;100.00
38900;BME280;24660;43.238;26.576;2022-07-01T03:04:14;99235.38;;;19.60;100.00
38900;BME280;24660;43.238;26.576;2022-07-01T03:06:40;99242.72;;;19.81;100.00
38900;BME280;24660;43.238;26.576;2022-07-01T03:09:06;99241.69;;;19.97;100.00
38900;BME280;24660;43.238;26.576;2022-07-01T03:11:31;99238.97;;;19.97;100.00
38900;BME280;24660;43.238;26.576;2022-07-01T03:13:57;99239.72;;;20.05;100.00
38900;BME280;24660;43.238;26.576;2022-07-01T03:16:22;99242.63;;;20.40;100.00
38900;BME280;24660;43.238;26.576;2022-07-01T03:18:47;99232.91;;;20.45;100.00
38900;BME280;24660;43.238;26.576;2022-07-01T03:21:13;99236.16;;;20.05;100.00
38900;BME280;24660;43.238;26.576;2022-07-01T03:23:38;99250.34;;;19.71;100.00
38900;BME280;24660;43.238;26.576;2022-07-01T03:26:04;99255.91;;;20.13;100.00
38900;BME280;24660;43.238;26.576;2022-07-01T03:28:29;99254.16;;;19.91;100.00
38900;BME280;24660;43.238;26.576;2022-07-01T03:30:56;99259.13;;;19.73;100.00
38900;BME280;24660;43.238;26.576;2022-07-01T03:33:22;99257.91;;;20.41;100.00
38900;BME280;24660;43.238;26.576;2022-07-01T03:35:47;99247.31;;;20.46;100.00
38900;BME280;24660;43.238;26.576;2022-07-01T03:38:12;99250.59;;;20.27;100.00
38900;BME280;24660;43.238;26.576;2022-07-01T03:40:38;99249.25;;;20.16;100.00
38900;BME280;24660;43.238;26.576;2022-07-01T03:43:03;99259.97;;;20.24;100.00
38900;BME280;24660;43.238;26.576;2022-07-01T03:45:29;99258.09;;;20.25;100.00
38900;BME280;24660;43.238;26.576;2022-07-01T03:47:54;99260.66;;;20.62;100.00
38900;BME280;24660;43.238;26.576;2022-07-01T03:50:20;99247.47;;;20.81;100.00
38900;BME280;24660;43.238;26.576;2022-07-01T03:52:46;99252.06;;;20.80;100.00
38900;BME280;24660;43.238;26.576;2022-07-01T03:55:12;99254.69;;;20.95;100.00
38900;BME280;24660;43.238;26.576;2022-07-01T03:57:37;99246.94;;;21.13;100.00
38900;BME280;24660;43.238;26.576;2022-07-01T04:00:03;99245.19;;;21.55;100.00
38900;BME280;24660;43.238;26.576;2022-07-01T04:02:30;99245.97;;;21.49;100.00
38900;BME280;24660;43.238;26.576;2022-07-01T04:04:55;99241.25;;;21.64;100.00
38900;BME280;24660;43.238;26.576;2022-07-01T04:07:20;99238.00;;;21.82;100.00
38900;BME280;24660;43.238;26.576;2022-07-01T04:09:46;99242.56;;;21.75;100.00
38900;BME280;24660;43.238;26.576;2022-07-01T04:12:11;99251.47;;;21.62;100.00
38900;BME280;24660;43.238;26.576;2022-07-01T04:14:37;99255.41;;;21.94;100.00
38900;BME280;24660;43.238;26.576;2022-07-01T04:17:03;99250.28;;;22.06;100.00
38900;BME280;24660;43.238;26.576;2022-07-01T04:19:28;99262.84;;;22.07;100.00
38900;BME280;24660;43.238;26.576;2022-07-01T04:21:54;99266.94;;;22.24;100.00
38900;BME280;24660;43.238;26.576;2022-07-01T04:24:34;99267.91;;;22.16;100.00
38900;BME280;24660;43.238;26.576;2022-07-01T04:27:00;99267.00;;;22.03;100.00
38900;BME280;24660;43.238;26.576;2022-07-01T04:29:26;99270.78;;;22.56;100.00
38900;BME280;24660;43.238;26.576;2022-07-01T04:31:57;99264.50;;;22.56;100.00
38900;BME280;24660;43.238;26.576;2022-07-01T04:34:23;99255.94;;;22.78;100.00
38900;BME280;24660;43.238;26.576;2022-07-01T04:36:48;99256.16;;;22.77;100.00
38900;BME280;24660;43.238;26.576;2022-07-01T04:39:14;99255.09;;;22.78;99.36
38900;BME280;24660;43.238;26.576;2022-07-01T04:41:39;99263.63;;;22.48;97.70
38900;BME280;24660;43.238;26.576;2022-07-01T04:44:19;99260.75;;;22.76;96.50
38900;BME280;24660;43.238;26.576;2022-07-01T04:46:45;99264.31;;;22.64;95.97
38900;BME280;24660;43.238;26.576;2022-07-01T04:49:10;99269.00;;;23.03;94.98
38900;BME280;24660;43.238;26.576;2022-07-01T04:51:36;99256.88;;;23.25;93.89
38900;BME280;24660;43.238;26.576;2022-07-01T04:54:02;99261.47;;;23.51;93.22
38900;BME280;24660;43.238;26.576;2022-07-01T04:56:27;99265.84;;;23.72;91.93
38900;BME280;24660;43.238;26.576;2022-07-01T04:58:54;99262.69;;;23.82;91.35
38900;BME280;24660;43.238;26.576;2022-07-01T05:01:19;99267.03;;;24.09;90.43
38900;BME280;24660;43.238;26.576;2022-07-01T05:03:45;99265.81;;;23.79;88.55
38900;BME280;24660;43.238;26.576;2022-07-01T05:06:10;99274.16;;;24.04;88.85
38900;BME280;24660;43.238;26.576;2022-07-01T05:08:35;99275.00;;;24.04;88.98
38900;BME280;24660;43.238;26.576;2022-07-01T05:11:01;99271.00;;;24.13;88.53
38900;BME280;24660;43.238;26.576;2022-07-01T05:13:26;99266.13;;;24.22;87.44
38900;BME280;24660;43.238;26.576;2022-07-01T05:15:51;99255.22;;;24.60;85.55
38900;BME280;24660;43.238;26.576;2022-07-01T05:18:17;99264.03;;;24.62;85.74
38900;BME280;24660;43.238;26.576;2022-07-01T05:20:57;99259.72;;;23.96;87.34
38900;BME280;24660;43.238;26.576;2022-07-01T05:23:38;99256.66;;;24.24;88.82
38900;BME280;24660;43.238;26.576;2022-07-01T05:26:03;99264.84;;;24.69;87.23
38900;BME280;24660;43.238;26.576;2022-07-01T05:28:29;99269.03;;;25.10;87.73
38900;BME280;24660;43.238;26.576;2022-07-01T05:30:54;99271.47;;;25.18;87.61
38900;BME280;24660;43.238;26.576;2022-07-01T05:33:19;99263.56;;;25.10;87.00
38900;BME280;24660;43.238;26.576;2022-07-01T05:35:46;99274.53;;;25.35;84.25
38900;BME280;24660;43.238;26.576;2022-07-01T05:38:11;99269.22;;;25.58;83.59
38900;BME280;24660;43.238;26.576;2022-07-01T05:40:37;99272.19;;;25.82;78.56
38900;BME280;24660;43.238;26.576;2022-07-01T05:43:02;99278.22;;;25.90;77.30
38900;BME280;24660;43.238;26.576;2022-07-01T05:45:27;99276.16;;;26.22;76.58
38900;BME280;24660;43.238;26.576;2022-07-01T05:47:53;99278.53;;;26.37;75.71
38900;BME280;24660;43.238;26.576;2022-07-01T05:50:21;99283.19;;;26.37;75.33
38900;BME280;24660;43.238;26.576;2022-07-01T05:52:46;99277.94;;;25.73;75.73
38900;BME280;24660;43.238;26.576;2022-07-01T05:55:11;99285.75;;;26.13;75.21
38900;BME280;24660;43.238;26.576;2022-07-01T05:57:37;99292.56;;;26.59;74.40
38900;BME280;24660;43.238;26.576;2022-07-01T06:00:03;99288.63;;;26.85;74.79
38900;BME280;24660;43.238;26.576;2022-07-01T06:02:28;99293.50;;;26.83;75.74
38900;BME280;24660;43.238;26.576;2022-07-01T06:04:53;99299.88;;;26.95;70.84
38900;BME280;24660;43.238;26.576;2022-07-01T06:07:19;99296.75;;;27.21;70.10
38900;BME280;24660;43.238;26.576;2022-07-01T06:09:44;99300.38;;;27.34;68.76
38900;BME280;24660;43.238;26.576;2022-07-01T06:12:10;99306.25;;;27.61;67.97
38900;BME280;24660;43.238;26.576;2022-07-01T06:14:36;99302.75;;;27.42;70.16
38900;BME280;24660;43.238;26.576;2022-07-01T06:17:02;99298.41;;;27.76;69.50
38900;BME280;24660;43.238;26.576;2022-07-01T06:19:27;99293.59;;;27.95;68.92
38900;BME280;24660;43.238;26.576;2022-07-01T06:21:53;99305.06;;;28.03;67.18
38900;BME280;24660;43.238;26.576;2022-07-01T06:24:18;99307.41;;;28.47;65.73
38900;BME280;24660;43.238;26.576;2022-07-01T06:26:43;99318.28;;;29.10;64.68
38900;BME280;24660;43.238;26.576;2022-07-01T06:29:09;99316.59;;;29.09;63.07
38900;BME280;24660;43.238;26.576;2022-07-01T06:31:37;99310.41;;;28.74;64.52
38900;BME280;24660;43.238;26.576;2022-07-01T06:34:03;99318.03;;;29.12;64.84
38900;BME280;24660;43.238;26.576;2022-07-01T06:36:28;99309.69;;;29.07;64.00
38900;BME280;24660;43.238;26.576;2022-07-01T06:38:53;99307.59;;;28.57;66.20
38900;BME280;24660;43.238;26.576;2022-07-01T06:41:19;99302.66;;;28.30;66.80
38900;BME280;24660;43.238;26.576;2022-07-01T06:44:00;99313.50;;;28.77;66.39
38900;BME280;24660;43.238;26.576;2022-07-01T06:46:26;99308.50;;;28.34;66.96
38900;BME280;24660;43.238;26.576;2022-07-01T06:48:51;99314.47;;;28.71;65.60
38900;BME280;24660;43.238;26.576;2022-07-01T06:51:17;99309.75;;;28.83;65.31
38900;BME280;24660;43.238;26.576;2022-07-01T06:53:43;99307.63;;;29.14;63.07
38900;BME280;24660;43.238;26.576;2022-07-01T06:56:10;99305.88;;;29.41;64.27
38900;BME280;24660;43.238;26.576;2022-07-01T06:58:35;99314.34;;;29.51;63.79
38900;BME280;24660;43.238;26.576;2022-07-01T07:01:00;99311.06;;;29.54;64.88
38900;BME280;24660;43.238;26.576;2022-07-01T07:03:26;99312.47;;;29.91;64.17
38900;BME280;24660;43.238;26.576;2022-07-01T07:05:52;99306.78;;;29.97;62.48
38900;BME280;24660;43.238;26.576;2022-07-01T07:08:17;99305.84;;;30.08;62.61
38900;BME280;24660;43.238;26.576;2022-07-01T07:10:43;99305.81;;;30.47;61.66
38900;BME280;24660;43.238;26.576;2022-07-01T07:13:08;99305.13;;;30.13;62.88
38900;BME280;24660;43.238;26.576;2022-07-01T07:15:33;99306.06;;;30.24;62.02
38900;BME280;24660;43.238;26.576;2022-07-01T07:17:59;99316.66;;;30.54;61.10
38900;BME280;24660;43.238;26.576;2022-07-01T07:20:24;99303.94;;;29.08;64.01
38900;BME280;24660;43.238;26.576;2022-07-01T07:22:50;99305.13;;;29.29;65.66
38900;BME280;24660;43.238;26.576;2022-07-01T07:25:15;99313.41;;;29.29;65.95
38900;BME280;24660;43.238;26.576;2022-07-01T07:27:44;99299.56;;;28.95;65.44
38900;BME280;24660;43.238;26.576;2022-07-01T07:30:12;99295.16;;;27.91;68.20
38900;BME280;24660;43.238;26.576;2022-07-01T07:32:38;99297.72;;;28.44;66.14
38900;BME280;24660;43.238;26.576;2022-07-01T07:35:03;99295.97;;;28.66;66.00
38900;BME280;24660;43.238;26.576;2022-07-01T07:37:29;99294.84;;;28.39;67.25
38900;BME280;24660;43.238;26.576;2022-07-01T07:39:57;99292.91;;;28.91;66.08
38900;BME280;24660;43.238;26.576;2022-07-01T07:42:22;99298.94;;;29.39;63.03
38900;BME280;24660;43.238;26.576;2022-07-01T07:44:48;99305.28;;;30.06;61.44
38900;BME280;24660;43.238;26.576;2022-07-01T07:47:13;99305.38;;;30.33;60.82
38900;BME280;24660;43.238;26.576;2022-07-01T07:49:38;99298.56;;;30.19;60.78
38900;BME280;24660;43.238;26.576;2022-07-01T07:52:04;99298.00;;;30.00;60.09
38900;BME280;24660;43.238;26.576;2022-07-01T07:54:29;99307.63;;;30.14;56.52
38900;BME280;24660;43.238;26.576;2022-07-01T07:56:54;99307.63;;;29.81;57.43
38900;BME280;24660;43.238;26.576;2022-07-01T07:59:20;99308.09;;;30.72;57.80
38900;BME280;24660;43.238;26.576;2022-07-01T08:01:45;99312.47;;;30.07;57.43
38900;BME280;24660;43.238;26.576;2022-07-01T08:04:11;99312.16;;;29.53;59.25
38900;BME280;24660;43.238;26.576;2022-07-01T08:06:36;99315.97;;;30.03;54.51
38900;BME280;24660;43.238;26.576;2022-07-01T08:09:02;99317.56;;;30.59;53.13
38900;BME280;24660;43.238;26.576;2022-07-01T08:11:28;99327.78;;;31.67;50.89
38900;BME280;24660;43.238;26.576;2022-07-01T08:13:53;99338.69;;;32.20;50.09
38900;BME280;24660;43.238;26.576;2022-07-01T08:16:18;99328.78;;;32.82;49.44
38900;BME280;24660;43.238;26.576;2022-07-01T08:18:44;99336.69;;;33.51;48.05
38900;BME280;24660;43.238;26.576;2022-07-01T08:21:09;99332.72;;;33.17;47.74
38900;BME280;24660;43.238;26.576;2022-07-01T08:23:34;99325.78;;;33.04;45.60
38900;BME280;24660;43.238;26.576;2022-07-01T08:26:00;99319.84;;;32.70;47.10
38900;BME280;24660;43.238;26.576;2022-07-01T08:28:25;99315.63;;;31.30;47.68
38900;BME280;24660;43.238;26.576;2022-07-01T08:30:51;99307.81;;;30.73;49.21
38900;BME280;24660;43.238;26.576;2022-07-01T08:33:16;99315.41;;;30.83;50.61
38900;BME280;24660;43.238;26.576;2022-07-01T08:35:41;99310.19;;;30.87;51.64
38900;BME280;24660;43.238;26.576;2022-07-01T08:38:07;99319.38;;;31.19;50.97
38900;BME280;24660;43.238;26.576;2022-07-01T08:40:32;99324.16;;;31.61;50.27
38900;BME280;24660;43.238;26.576;2022-07-01T08:42:58;99325.31;;;31.38;49.58
38900;BME280;24660;43.238;26.576;2022-07-01T08:45:25;99320.84;;;30.56;50.13
38900;BME280;24660;43.238;26.576;2022-07-01T08:47:51;99325.91;;;31.13;50.59
38900;BME280;24660;43.238;26.576;2022-07-01T08:50:17;99328.50;;;31.52;49.25
38900;BME280;24660;43.238;26.576;2022-07-01T08:52:43;99322.47;;;31.55;47.70
38900;BME280;24660;43.238;26.576;2022-07-01T08:55:08;99322.78;;;30.56;52.37
38900;BME280;24660;43.238;26.576;2022-07-01T08:57:33;99318.34;;;30.77;52.58
38900;BME280;24660;43.238;26.576;2022-07-01T09:00:00;99322.06;;;31.14;52.60
38900;BME280;24660;43.238;26.576;2022-07-01T09:02:26;99329.03;;;31.49;52.15
38900;BME280;24660;43.238;26.576;2022-07-01T09:07:33;99327.47;;;31.95;48.29
38900;BME280;24660;43.238;26.576;2022-07-01T09:10:07;99325.59;;;31.37;50.31
38900;BME280;24660;43.238;26.576;2022-07-01T09:12:40;99324.03;;;31.46;50.40
38900;BME280;24660;43.238;26.576;2022-07-01T09:17:46;99316.88;;;32.24;49.09
38900;BME280;24660;43.238;26.576;2022-07-01T09:20:22;99328.03;;;32.39;47.23
38900;BME280;24660;43.238;26.576;2022-07-01T09:25:31;99332.59;;;32.66;48.70
38900;BME280;24660;43.238;26.576;2022-07-01T09:30:39;99327.59;;;32.15;46.66
38900;BME280;24660;43.238;26.576;2022-07-01T09:33:06;99325.13;;;31.77;46.85
38900;BME280;24660;43.238;26.576;2022-07-01T09:35:31;99325.16;;;32.24;45.15
38900;BME280;24660;43.238;26.576;2022-07-01T09:37:57;99318.13;;;32.01;45.92
38900;BME280;24660;43.238;26.576;2022-07-01T09:40:22;99317.75;;;32.30;45.63
38900;BME280;24660;43.238;26.576;2022-07-01T09:42:48;99326.22;;;32.70;45.44
38900;BME280;24660;43.238;26.576;2022-07-01T09:45:15;99312.25;;;33.33;44.82
38900;BME280;24660;43.238;26.576;2022-07-01T09:47:41;99312.72;;;32.89;44.21
38900;BME280;24660;43.238;26.576;2022-07-01T09:50:08;99303.38;;;32.33;44.48
38900;BME280;24660;43.238;26.576;2022-07-01T09:52:34;99308.72;;;32.55;44.08
38900;BME280;24660;43.238;26.576;2022-07-01T09:54:59;99300.47;;;32.75;43.91
38900;BME280;24660;43.238;26.576;2022-07-01T09:57:25;99281.78;;;32.30;43.17
38900;BME280;24660;43.238;26.576;2022-07-01T09:59:51;99289.28;;;31.92;45.62
38900;BME280;24660;43.238;26.576;2022-07-01T10:02:18;99280.41;;;32.32;44.21
38900;BME280;24660;43.238;26.576;2022-07-01T10:04:48;99274.31;;;32.30;41.91
38900;BME280;24660;43.238;26.576;2022-07-01T10:09:44;99284.28;;;33.45;41.91
38900;BME280;24660;43.238;26.576;2022-07-01T10:14:54;99290.63;;;33.91;41.22
38900;BME280;24660;43.238;26.576;2022-07-01T10:17:29;99283.94;;;34.12;39.85
38900;BME280;24660;43.238;26.576;2022-07-01T10:19:55;99299.84;;;34.66;39.37
38900;BME280;24660;43.238;26.576;2022-07-01T10:22:26;99299.16;;;34.95;40.07
38900;BME280;24660;43.238;26.576;2022-07-01T10:24:52;99292.78;;;34.19;39.74
38900;BME280;24660;43.238;26.576;2022-07-01T10:27:20;99280.97;;;33.43;42.25
38900;BME280;24660;43.238;26.576;2022-07-01T10:29:45;99292.56;;;32.31;44.89
38900;BME280;24660;43.238;26.576;2022-07-01T10:35:02;99297.09;;;30.77;48.08
38900;BME280;24660;43.238;26.576;2022-07-01T10:37:28;99285.63;;;30.41;48.19
38900;BME280;24660;43.238;26.576;2022-07-01T10:42:19;99282.47;;;29.94;49.35
38900;BME280;24660;43.238;26.576;2022-07-01T10:47:26;99299.06;;;29.61;52.85
38900;BME280;24660;43.238;26.576;2022-07-01T10:49:55;99307.94;;;28.60;59.77
38900;BME280;24660;43.238;26.576;2022-07-01T10:52:21;99299.59;;;26.55;75.22
38900;BME280;24660;43.238;26.576;2022-07-01T10:54:48;99305.28;;;25.55;89.01
38900;BME280;24660;43.238;26.576;2022-07-01T10:57:21;99324.25;;;24.87;100.00
38900;BME280;24660;43.238;26.576;2022-07-01T10:59:50;99338.59;;;24.24;100.00
38900;BME280;24660;43.238;26.576;2022-07-01T11:02:17;99353.81;;;23.61;100.00
38900;BME280;24660;43.238;26.576;2022-07-01T11:04:43;99389.88;;;23.50;100.00
38900;BME280;24660;43.238;26.576;2022-07-01T11:07:09;99395.34;;;23.50;100.00
38900;BME280;24660;43.238;26.576;2022-07-01T11:09:34;99391.34;;;23.46;100.00
38900;BME280;24660;43.238;26.576;2022-07-01T11:12:00;99407.28;;;23.29;100.00
38900;BME280;24660;43.238;26.576;2022-07-01T11:14:26;99458.69;;;23.25;100.00
38900;BME280;24660;43.238;26.576;2022-07-01T11:16:52;99481.44;;;23.59;100.00
38900;BME280;24660;43.238;26.576;2022-07-01T11:19:18;99466.31;;;23.63;100.00
38900;BME280;24660;43.238;26.576;2022-07-01T11:21:50;99469.72;;;23.72;100.00
38900;BME280;24660;43.238;26.576;2022-07-01T11:24:16;99475.53;;;23.55;100.00
38900;BME280;24660;43.238;26.576;2022-07-01T11:26:42;99475.78;;;23.60;100.00
38900;BME280;24660;43.238;26.576;2022-07-01T11:29:09;99480.75;;;23.37;100.00
38900;BME280;24660;43.238;26.576;2022-07-01T11:31:34;99479.13;;;23.62;100.00
38900;BME280;24660;43.238;26.576;2022-07-01T11:34:00;99474.06;;;23.53;100.00
38900;BME280;24660;43.238;26.576;2022-07-01T11:36:25;99468.16;;;23.49;100.00
38900;BME280;24660;43.238;26.576;2022-07-01T11:39:06;99452.66;;;23.56;100.00
38900;BME280;24660;43.238;26.576;2022-07-01T11:41:46;99413.38;;;23.44;100.00
38900;BME280;24660;43.238;26.576;2022-07-01T11:44:12;99412.78;;;23.55;100.00
38900;BME280;24660;43.238;26.576;2022-07-01T11:46:37;99388.88;;;23.71;100.00
38900;BME280;24660;43.238;26.576;2022-07-01T11:49:10;99375.66;;;23.81;100.00
38900;BME280;24660;43.238;26.576;2022-07-01T11:51:35;99365.97;;;23.91;100.00
38900;BME280;24660;43.238;26.576;2022-07-01T11:54:01;99368.28;;;24.08;100.00
38900;BME280;24660;43.238;26.576;2022-07-01T11:56:30;99361.16;;;23.93;100.00
38900;BME280;24660;43.238;26.576;2022-07-01T11:58:56;99344.34;;;23.90;100.00
38900;BME280;24660;43.238;26.576;2022-07-01T12:03:47;99340.56;;;23.91;100.00
38900;BME280;24660;43.238;26.576;2022-07-01T12:06:12;99332.97;;;24.13;100.00
38900;BME280;24660;43.238;26.576;2022-07-01T12:08:38;99345.91;;;24.50;100.00
38900;BME280;24660;43.238;26.576;2022-07-01T12:11:04;99364.47;;;23.49;100.00
38900;BME280;24660;43.238;26.576;2022-07-01T12:13:29;99365.34;;;23.76;100.00
38900;BME280;24660;43.238;26.576;2022-07-01T12:16:04;99366.53;;;24.40;100.00
38900;BME280;24660;43.238;26.576;2022-07-01T12:18:30;99365.03;;;24.50;100.00
38900;BME280;24660;43.238;26.576;2022-07-01T12:20:55;99322.72;;;24.60;100.00
38900;BME280;24660;43.238;26.576;2022-07-01T12:23:22;99319.75;;;24.61;100.00
38900;BME280;24660;43.238;26.576;2022-07-01T12:25:48;99323.88;;;24.83;100.00
38900;BME280;24660;43.238;26.576;2022-07-01T12:30:58;99339.34;;;25.03;100.00
38900;BME280;24660;43.238;26.576;2022-07-01T12:33:24;99309.84;;;25.11;100.00
38900;BME280;24660;43.238;26.576;2022-07-01T12:35:49;99324.41;;;25.30;100.00
38900;BME280;24660;43.238;26.576;2022-07-01T12:38:15;99295.63;;;25.78;100.00
38900;BME280;24660;43.238;26.576;2022-07-01T12:40:41;99278.91;;;26.22;100.00
38900;BME280;24660;43.238;26.576;2022-07-01T12:43:21;99250.34;;;27.43;100.00
38900;BME280;24660;43.238;26.576;2022-07-01T12:45:47;99230.19;;;28.93;100.00
38900;BME280;24660;43.238;26.576;2022-07-01T12:48:12;99222.72;;;30.17;86.11
38900;BME280;24660;43.238;26.576;2022-07-01T12:50:37;99218.91;;;30.01;83.30
38900;BME280;24660;43.238;26.576;2022-07-01T12:53:04;99232.59;;;31.84;77.17
38900;BME280;24660;43.238;26.576;2022-07-01T12:55:32;99241.59;;;33.20;67.26
38900;BME280;24660;43.238;26.576;2022-07-01T12:57:58;99243.28;;;33.47;67.19
38900;BME280;24660;43.238;26.576;2022-07-01T13:00:25;99260.28;;;34.85;61.17
38900;BME280;24660;43.238;26.576;2022-07-01T13:02:54;99245.63;;;34.14;62.52
38900;BME280;24660;43.238;26.576;2022-07-01T13:05:21;99245.88;;;34.18;59.56
38900;BME280;24660;43.238;26.576;2022-07-01T13:07:46;99253.22;;;33.93;56.21
38900;BME280;24660;43.238;26.576;2022-07-01T13:10:16;99252.53;;;34.27;55.48